createdAt,value
2018-12-01T00:00:00.000Z,-1.6
2018-12-01T00:05:00.000Z,-1.5
2018-12-01T00:10:00.000Z,-1.5
2018-12-01T00:15:00.000Z,-1.5
2018-12-01T00:20:00.000Z,-1.5
2018-12-01T00:25:00.000Z,-1.5
2018-12-01T00:30:00.000Z,-1.5
2018-12-01T00:35:00.000Z,-1.5
2018-12-01T00:40:00.000Z,-1.6
2018-12-01T00:45:00.000Z,-1.7
2018-12-01T00:50:00.000Z,-1.6
2018-12-01T00:55:00.000Z,-1.6
2018-12-01T01:00:00.000Z,-1.6
2018-12-01T01:05:00.000Z,-1.6
2018-12-01T01:10:00.000Z,-1.6
2018-12-01T01:15:00.000Z,-1.6
2018-12-01T01:20:00.000Z,-1.6
2018-12-01T01:25:00.000Z,-1.6
2018-12-01T01:30:00.000Z,-1.7
2018-12-01T01:35:00.000Z,-1.7
2018-12-01T01:40:00.000Z,-1.7
2018-12-01T01:45:00.000Z,-1.7
2018-12-01T01:50:00.000Z,-1.6
2018-12-01T01:55:00.000Z,-1.6
2018-12-01T02:00:00.000Z,-1.6
2018-12-01T02:05:00.000Z,-1.6
2018-12-01T02:10:00.000Z,-1.6
2018-12-01T02:15:00.000Z,-1.5
2018-12-01T02:20:00.000Z,-1.5
2018-12-01T02:25:00.000Z,-1.4
2018-12-01T02:30:00.000Z,-1.4
2018-12-01T02:35:00.000Z,-1.4
2018-12-01T02:40:00.000Z,-1.4
2018-12-01T02:45:00.000Z,-1.4
2018-12-01T02:50:00.000Z,-1.3
2018-12-01T02:55:00.000Z,-1.4
2018-12-01T03:00:00.000Z,-1.4
2018-12-01T03:05:00.000Z,-1.3
2018-12-01T03:10:00.000Z,-1.3
2018-12-01T03:15:00.000Z,-1.2
2018-12-01T03:20:00.000Z,-1.2
2018-12-01T03:25:00.000Z,-1.2
2018-12-01T03:30:00.000Z,-1.2
2018-12-01T03:35:00.000Z,-1.2
2018-12-01T03:40:00.000Z,-1.1
2018-12-01T03:45:00.000Z,-1.1
2018-12-01T03:50:00.000Z,-1.1
2018-12-01T03:55:00.000Z,-1.1
2018-12-01T04:00:00.000Z,-1.0
2018-12-01T04:05:00.000Z,-1.0
2018-12-01T04:10:00.000Z,-1.0
2018-12-01T04:15:00.000Z,-1.0
2018-12-01T04:20:00.000Z,-1.0
2018-12-01T04:25:00.000Z,-1.1
2018-12-01T04:30:00.000Z,-1.1
2018-12-01T04:35:00.000Z,-1.1
2018-12-01T04:40:00.000Z,-1.1
2018-12-01T04:45:00.000Z,-1.1
2018-12-01T04:50:00.000Z,-1.1
2018-12-01T04:55:00.000Z,-1.1
2018-12-01T05:00:00.000Z,-1.1
2018-12-01T05:05:00.000Z,-1.1
2018-12-01T05:10:00.000Z,-1.1
2018-12-01T05:15:00.000Z,-1.1
2018-12-01T05:20:00.000Z,-1.1
2018-12-01T05:25:00.000Z,-1.1
2018-12-01T05:30:00.000Z,-1.1
2018-12-01T05:35:00.000Z,-1.1
2018-12-01T05:40:00.000Z,-1.1
2018-12-01T05:46:00.000Z,-1.1
2018-12-01T05:51:00.000Z,-1.0
2018-12-01T05:56:00.000Z,-1.0
2018-12-01T06:01:00.000Z,-0.9
2018-12-01T06:06:00.000Z,-0.9
2018-12-01T06:11:00.000Z,-1.0
2018-12-01T06:16:00.000Z,-1.0
2018-12-01T06:21:00.000Z,-1.0
2018-12-01T06:26:00.000Z,-1.0
2018-12-01T06:31:00.000Z,-0.9
2018-12-01T06:36:00.000Z,-0.9
2018-12-01T06:41:00.000Z,-0.8
2018-12-01T06:46:00.000Z,-0.8
2018-12-01T06:51:00.000Z,-0.7
2018-12-01T06:56:00.000Z,-0.7
2018-12-01T07:01:00.000Z,-0.6
2018-12-01T07:06:00.000Z,-0.6
2018-12-01T07:11:00.000Z,-0.5
2018-12-01T07:16:00.000Z,-0.4
2018-12-01T07:21:00.000Z,-0.3
2018-12-01T07:26:00.000Z,-0.3
2018-12-01T07:31:00.000Z,-0.3
2018-12-01T07:36:00.000Z,-0.3
2018-12-01T07:41:00.000Z,-0.3
2018-12-01T07:46:00.000Z,-0.2
2018-12-01T07:51:00.000Z,-0.2
2018-12-01T07:56:00.000Z,-0.2
2018-12-01T08:01:00.000Z,-0.1
2018-12-01T08:06:00.000Z,-0.0
2018-12-01T08:11:00.000Z,0.1
2018-12-01T08:16:00.000Z,0.2
2018-12-01T08:21:00.000Z,0.3
2018-12-01T08:26:00.000Z,0.4
2018-12-01T08:31:00.000Z,0.4
2018-12-01T08:36:00.000Z,0.4
2018-12-01T08:41:00.000Z,0.5
2018-12-01T08:46:00.000Z,0.4
2018-12-01T08:51:00.000Z,0.3
2018-12-01T08:56:00.000Z,0.4
2018-12-01T09:01:00.000Z,0.4
2018-12-01T09:06:00.000Z,0.4
2018-12-01T09:11:00.000Z,0.5
2018-12-01T09:16:00.000Z,0.5
2018-12-01T09:21:00.000Z,0.5
2018-12-01T09:26:00.000Z,0.5
2018-12-01T09:31:00.000Z,0.5
2018-12-01T09:36:00.000Z,0.6
2018-12-01T09:41:00.000Z,0.6
2018-12-01T09:46:00.000Z,0.7
2018-12-01T09:51:00.000Z,0.7
2018-12-01T09:56:00.000Z,0.8
2018-12-01T10:01:00.000Z,0.8
2018-12-01T10:06:00.000Z,0.9
2018-12-01T10:11:00.000Z,1.0
2018-12-01T10:16:00.000Z,1.1
2018-12-01T10:21:00.000Z,1.1
2018-12-01T10:26:00.000Z,1.0
2018-12-01T10:31:00.000Z,1.0
2018-12-01T10:36:00.000Z,0.9
2018-12-01T10:41:00.000Z,1.0
2018-12-01T10:46:00.000Z,1.0
2018-12-01T10:51:00.000Z,1.1
2018-12-01T10:56:00.000Z,1.1
2018-12-01T11:01:00.000Z,1.1
2018-12-01T11:06:00.000Z,1.0
2018-12-01T11:11:00.000Z,1.0
2018-12-01T11:16:00.000Z,1.0
2018-12-01T11:21:00.000Z,1.0
2018-12-01T11:26:00.000Z,1.0
2018-12-01T11:31:00.000Z,1.2
2018-12-01T11:36:00.000Z,1.2
2018-12-01T11:41:00.000Z,1.1
2018-12-01T11:46:00.000Z,1.2
2018-12-01T11:51:00.000Z,1.2
2018-12-01T11:57:00.000Z,1.2
2018-12-01T12:02:00.000Z,1.2
2018-12-01T12:07:00.000Z,1.2
2018-12-01T12:12:00.000Z,1.1
2018-12-01T12:17:00.000Z,1.1
2018-12-01T12:22:00.000Z,1.0
2018-12-01T12:27:00.000Z,0.8
2018-12-01T12:32:00.000Z,0.6
2018-12-01T12:37:00.000Z,0.6
2018-12-01T12:42:00.000Z,0.5
2018-12-01T12:47:00.000Z,0.5
2018-12-01T12:52:00.000Z,0.5
2018-12-01T12:57:00.000Z,0.6
2018-12-01T13:02:00.000Z,0.6
2018-12-01T13:07:00.000Z,0.6
2018-12-01T13:12:00.000Z,0.6
2018-12-01T13:17:00.000Z,0.6
2018-12-01T13:22:00.000Z,0.7
2018-12-01T13:27:00.000Z,0.8
2018-12-01T13:32:00.000Z,0.9
2018-12-01T13:37:00.000Z,0.9
2018-12-01T13:42:00.000Z,0.9
2018-12-01T13:47:00.000Z,0.9
2018-12-01T13:52:00.000Z,0.9
2018-12-01T13:57:00.000Z,0.9
2018-12-01T14:02:00.000Z,1.0
2018-12-01T14:07:00.000Z,1.0
2018-12-01T14:12:00.000Z,0.9
2018-12-01T14:17:00.000Z,1.0
2018-12-01T14:22:00.000Z,1.0
2018-12-01T14:27:00.000Z,1.0
2018-12-01T14:32:00.000Z,1.0
2018-12-01T14:37:00.000Z,1.0
2018-12-01T14:42:00.000Z,1.0
2018-12-01T14:47:00.000Z,1.0
2018-12-01T14:52:00.000Z,1.0
2018-12-01T14:57:00.000Z,0.9
2018-12-01T15:02:00.000Z,0.9
2018-12-01T15:07:00.000Z,0.9
2018-12-01T15:12:00.000Z,0.9
2018-12-01T15:17:00.000Z,1.0
2018-12-01T15:22:00.000Z,1.0
2018-12-01T15:27:00.000Z,1.1
2018-12-01T15:32:00.000Z,1.2
2018-12-01T15:37:00.000Z,1.1
2018-12-01T15:42:00.000Z,1.1
2018-12-01T15:47:00.000Z,1.2
2018-12-01T15:52:00.000Z,1.1
2018-12-01T15:57:00.000Z,1.1
2018-12-01T16:02:00.000Z,1.1
2018-12-01T16:07:00.000Z,1.1
2018-12-01T16:12:00.000Z,1.1
2018-12-01T16:17:00.000Z,1.1
2018-12-01T16:22:00.000Z,1.1
2018-12-01T16:27:00.000Z,1.2
2018-12-01T16:32:00.000Z,1.2
2018-12-01T16:37:00.000Z,1.2
2018-12-01T16:42:00.000Z,1.1
2018-12-01T16:47:00.000Z,1.1
2018-12-01T16:52:00.000Z,1.1
2018-12-01T16:57:00.000Z,1.0
2018-12-01T17:02:00.000Z,1.0
2018-12-01T17:07:00.000Z,1.1
2018-12-01T17:12:00.000Z,1.1
2018-12-01T17:17:00.000Z,1.1
2018-12-01T17:22:00.000Z,1.1
2018-12-01T17:27:00.000Z,1.1
2018-12-01T17:32:00.000Z,1.1
2018-12-01T17:37:00.000Z,1.1
2018-12-01T17:42:00.000Z,1.0
2018-12-01T17:47:00.000Z,1.1
2018-12-01T17:52:00.000Z,1.0
2018-12-01T17:57:00.000Z,1.0
2018-12-01T18:03:00.000Z,1.0
2018-12-01T18:08:00.000Z,1.0
2018-12-01T18:13:00.000Z,1.0
2018-12-01T18:18:00.000Z,1.0
2018-12-01T18:23:00.000Z,1.1
2018-12-01T18:28:00.000Z,1.1
2018-12-01T18:33:00.000Z,1.1
2018-12-01T18:38:00.000Z,1.0
2018-12-01T18:43:00.000Z,1.0
2018-12-01T18:48:00.000Z,1.0
2018-12-01T18:53:00.000Z,0.9
2018-12-01T18:58:00.000Z,0.9
2018-12-01T19:03:00.000Z,0.9
2018-12-01T19:08:00.000Z,0.9
2018-12-01T19:13:00.000Z,0.9
2018-12-01T19:18:00.000Z,0.9
2018-12-01T19:23:00.000Z,0.8
2018-12-01T19:28:00.000Z,0.8
2018-12-01T19:33:00.000Z,0.6
2018-12-01T19:38:00.000Z,0.5
2018-12-01T19:43:00.000Z,0.4
2018-12-01T19:48:00.000Z,0.3
2018-12-01T19:53:00.000Z,0.1
2018-12-01T19:58:00.000Z,0.1
2018-12-01T20:03:00.000Z,-0.1
2018-12-01T20:08:00.000Z,-0.2
2018-12-01T20:13:00.000Z,-0.3
2018-12-01T20:18:00.000Z,-0.4
2018-12-01T20:23:00.000Z,-0.4
2018-12-01T20:28:00.000Z,-0.5
2018-12-01T20:33:00.000Z,-0.5
2018-12-01T20:38:00.000Z,-0.6
2018-12-01T20:43:00.000Z,-0.7
2018-12-01T20:48:00.000Z,-0.7
2018-12-01T20:53:00.000Z,-0.6
2018-12-01T20:58:00.000Z,-0.6
2018-12-01T21:03:00.000Z,-0.5
2018-12-01T21:08:00.000Z,-0.5
2018-12-01T21:13:00.000Z,-0.5
2018-12-01T21:18:00.000Z,-0.5
2018-12-01T21:23:00.000Z,-0.5
2018-12-01T21:28:00.000Z,-0.6
2018-12-01T21:33:00.000Z,-0.6
2018-12-01T21:38:00.000Z,-0.7
2018-12-01T21:43:00.000Z,-0.8
2018-12-01T21:48:00.000Z,-0.8
2018-12-01T21:53:00.000Z,-0.8
2018-12-01T21:58:00.000Z,-0.8
2018-12-01T22:03:00.000Z,-0.9
2018-12-01T22:08:00.000Z,-0.9
2018-12-01T22:13:00.000Z,-0.9
2018-12-01T22:18:00.000Z,-0.8
2018-12-01T22:23:00.000Z,-0.8
2018-12-01T22:28:00.000Z,-0.9
2018-12-01T22:33:00.000Z,-0.9
2018-12-01T22:38:00.000Z,-0.9
2018-12-01T22:43:00.000Z,-0.9
2018-12-01T22:48:00.000Z,-0.9
2018-12-01T22:53:00.000Z,-0.8
2018-12-01T22:58:00.000Z,-0.8
2018-12-01T23:03:00.000Z,-0.8
2018-12-01T23:08:00.000Z,-0.9
2018-12-01T23:13:00.000Z,-0.9
2018-12-01T23:18:00.000Z,-0.9
2018-12-01T23:23:00.000Z,-0.8
2018-12-01T23:28:00.000Z,-0.8
2018-12-01T23:33:00.000Z,-0.8
2018-12-01T23:38:00.000Z,-0.8
2018-12-01T23:43:00.000Z,-0.8
2018-12-01T23:48:00.000Z,-0.7
2018-12-01T23:53:00.000Z,-0.7
2018-12-01T23:58:00.000Z,-0.8
